Reno, Pennsylvania
Current Conditions -  °F | °C
As of 6:55 PM on Monday 20 Oct 2014 (Local Time) from KFKL Reporting Station
Overcast Overcast  
Wind Chill: 50°   Ceiling: 6000
Heat Index: 50°   Visibility: 10mi
Dew Point: 41°   Wind: 9mph
Humidity: 71%   Direction: 170°S
Pressure: 29.87"   Gusts: NA
Location:  41.41°N, 79.75°W
Report Text: KFKL 202255Z 17008KT 10SM SCT045 OVC060 10/05 A2987 RMK AO1
Loading
Personal Weather Stations






























Interactive Weather Map New forecast layout! Learn more

10-Day Weather Forecast

Advertisements
Track Severe Weather on mobile